createdAt,value
2022-09-15T00:01:01.718Z,18.34
2022-09-15T00:03:42.691Z,18.36
2022-09-15T00:06:09.940Z,18.35
2022-09-15T00:08:37.769Z,18.34
2022-09-15T00:11:29.231Z,18.31
2022-09-15T00:14:00.321Z,18.24
2022-09-15T00:16:28.551Z,18.19
2022-09-15T00:18:55.322Z,18.19
2022-09-15T00:21:32.256Z,18.16
2022-09-15T00:24:00.533Z,18.10
2022-09-15T00:26:29.633Z,18.12
2022-09-15T00:28:58.041Z,18.10
2022-09-15T00:31:26.848Z,18.08
2022-09-15T00:33:56.176Z,18.06
2022-09-15T00:36:24.981Z,18.06
2022-09-15T00:38:52.122Z,18.11
2022-09-15T00:41:21.112Z,18.10
2022-09-15T00:44:03.093Z,18.09
2022-09-15T00:46:32.690Z,18.06
2022-09-15T00:49:06.515Z,18.05
2022-09-15T00:51:56.579Z,18.03
2022-09-15T00:54:29.836Z,18.02
2022-09-15T00:57:01.802Z,18.00
2022-09-15T00:59:31.766Z,17.91
2022-09-15T01:02:09.156Z,17.93
2022-09-15T01:04:35.972Z,17.95
2022-09-15T01:07:07.073Z,17.89
2022-09-15T01:09:43.507Z,17.78
2022-09-15T01:12:10.268Z,17.59
2022-09-15T01:14:36.973Z,17.55
2022-09-15T01:17:27.927Z,17.60
2022-09-15T01:20:45.142Z,17.92
2022-09-15T01:23:47.818Z,18.72
2022-09-15T01:26:39.267Z,19.11
2022-09-15T01:29:15.768Z,19.34
2022-09-15T01:32:16.738Z,19.44
2022-09-15T01:34:57.214Z,19.54
2022-09-15T01:37:30.411Z,19.55
2022-09-15T01:40:00.288Z,19.48
2022-09-15T01:42:29.489Z,19.36
2022-09-15T01:45:02.806Z,19.32
2022-09-15T01:47:35.205Z,19.27
2022-09-15T01:50:25.047Z,19.25
2022-09-15T01:52:56.229Z,19.15
2022-09-15T01:55:52.879Z,19.25
2022-09-15T01:58:20.390Z,19.25
2022-09-15T02:00:55.209Z,19.25
2022-09-15T02:03:37.199Z,19.25
2022-09-15T02:06:10.503Z,19.26
2022-09-15T02:08:57.993Z,19.39
2022-09-15T02:11:27.448Z,19.45
2022-09-15T02:14:10.768Z,19.53
2022-09-15T02:16:40.443Z,19.60
2022-09-15T02:19:19.127Z,19.78
2022-09-15T02:21:53.329Z,19.97
2022-09-15T02:24:28.309Z,20.02
2022-09-15T02:26:55.591Z,20.04
2022-09-15T02:29:26.726Z,20.10
2022-09-15T02:31:56.930Z,20.08
2022-09-15T02:34:28.833Z,20.03
2022-09-15T02:36:56.392Z,20.08
2022-09-15T02:39:30.203Z,20.08
2022-09-15T02:41:59.066Z,20.13
2022-09-15T02:44:30.376Z,20.22
2022-09-15T02:46:58.319Z,20.22
2022-09-15T02:49:25.141Z,20.18
2022-09-15T02:51:51.877Z,20.09
2022-09-15T02:54:18.709Z,20.04
2022-09-15T02:56:46.969Z,20.11
2022-09-15T02:59:14.048Z,20.05
2022-09-15T03:01:44.528Z,20.07
2022-09-15T03:04:11.705Z,20.10
2022-09-15T03:06:38.414Z,19.98
2022-09-15T03:09:07.150Z,20.00
2022-09-15T03:11:35.034Z,20.06
2022-09-15T03:14:05.206Z,20.09
2022-09-15T03:16:36.021Z,20.03
2022-09-15T03:19:03.575Z,20.00
2022-09-15T03:21:32.884Z,20.05
2022-09-15T03:23:59.934Z,19.94
2022-09-15T03:26:26.680Z,20.10
2022-09-15T03:28:53.696Z,20.21
2022-09-15T03:31:20.780Z,20.20
2022-09-15T03:33:48.090Z,20.22
2022-09-15T03:36:15.162Z,20.24
2022-09-15T03:38:42.063Z,20.32
2022-09-15T03:41:11.446Z,20.35
2022-09-15T03:43:38.902Z,20.38
2022-09-15T03:46:07.123Z,20.40
2022-09-15T03:48:35.325Z,20.39
2022-09-15T03:51:03.732Z,20.34
2022-09-15T03:53:32.573Z,20.35
2022-09-15T03:56:09.807Z,20.33
2022-09-15T03:58:36.791Z,20.22
2022-09-15T04:01:04.237Z,20.18
2022-09-15T04:03:39.068Z,20.07
2022-09-15T04:06:11.446Z,20.18
2022-09-15T04:08:38.286Z,20.26
2022-09-15T04:11:06.427Z,20.25
2022-09-15T04:13:34.267Z,20.21
2022-09-15T04:16:03.645Z,20.23
2022-09-15T04:18:32.562Z,20.26
2022-09-15T04:21:00.997Z,20.33
2022-09-15T04:23:27.718Z,20.25
2022-09-15T04:26:05.401Z,20.08
2022-09-15T04:28:36.359Z,20.05
2022-09-15T04:31:08.965Z,19.99
2022-09-15T04:33:37.026Z,20.10
2022-09-15T04:36:09.399Z,20.04
2022-09-15T04:38:36.616Z,20.07
2022-09-15T04:41:03.964Z,20.19
2022-09-15T04:43:31.974Z,20.13
2022-09-15T04:45:58.998Z,20.11
2022-09-15T04:48:26.010Z,20.03
2022-09-15T04:50:53.124Z,20.09
2022-09-15T04:53:19.922Z,20.14
2022-09-15T04:55:46.768Z,20.24
2022-09-15T04:58:13.753Z,20.38
2022-09-15T05:00:43.015Z,20.40
2022-09-15T05:03:11.675Z,20.37
2022-09-15T05:05:39.273Z,20.30
2022-09-15T05:08:07.523Z,20.37
2022-09-15T05:10:34.917Z,20.25
2022-09-15T05:13:01.811Z,20.29
2022-09-15T05:19:50.059Z,20.09
2022-09-15T05:26:22.001Z,19.89
2022-09-15T05:32:34.179Z,20.04
2022-09-15T05:35:19.659Z,20.00
2022-09-15T05:37:46.809Z,19.86
2022-09-15T05:48:12.709Z,19.85
2022-09-15T05:54:54.694Z,19.88
2022-09-15T06:02:03.244Z,19.95
2022-09-15T06:05:16.951Z,20.00
2022-09-15T06:08:05.434Z,20.03
2022-09-15T06:10:32.969Z,20.12
2022-09-15T06:21:58.689Z,20.45
2022-09-15T06:28:53.390Z,20.61
2022-09-15T06:36:11.727Z,21.20
2022-09-15T06:38:43.037Z,21.38
2022-09-15T06:45:19.579Z,21.59
2022-09-15T06:48:23.511Z,21.19
2022-09-15T06:50:39.333Z,21.16
2022-09-15T06:53:34.067Z,21.00
2022-09-15T06:56:21.035Z,21.03
2022-09-15T07:26:41.489Z,20.56
2022-09-15T07:30:07.984Z,20.79
2022-09-15T07:33:05.793Z,20.88
2022-09-15T07:39:47.601Z,20.93
2022-09-15T07:42:15.539Z,21.16
2022-09-15T07:44:42.591Z,21.19
2022-09-15T07:47:40.251Z,21.09
2022-09-15T07:53:58.581Z,20.92
2022-09-15T07:56:56.198Z,21.05
2022-09-15T07:59:45.827Z,21.06
2022-09-15T08:02:20.683Z,21.18
2022-09-15T08:12:37.226Z,21.13
2022-09-15T08:18:49.519Z,21.07
2022-09-15T08:21:19.815Z,21.29
2022-09-15T08:24:09.270Z,21.27
2022-09-15T08:31:02.191Z,21.29
2022-09-15T08:34:10.604Z,21.39
2022-09-15T08:36:37.428Z,21.14
2022-09-15T08:39:08.996Z,21.17
2022-09-15T08:42:00.282Z,21.06
2022-09-15T08:48:15.133Z,21.14
2022-09-15T08:50:47.772Z,21.19
2022-09-15T08:53:25.971Z,21.29
2022-09-15T08:56:18.758Z,21.43
2022-09-15T08:59:18.921Z,21.46
2022-09-15T09:01:55.032Z,21.68
2022-09-15T09:08:10.162Z,22.32
2022-09-15T09:15:10.985Z,22.41
2022-09-15T09:29:35.122Z,22.66
2022-09-15T09:35:44.710Z,22.99
2022-09-15T09:38:34.275Z,22.84
2022-09-15T09:41:54.251Z,22.43
2022-09-15T09:44:41.910Z,22.70
2022-09-15T09:47:09.331Z,22.63
2022-09-15T09:50:27.063Z,22.78
2022-09-15T09:52:54.086Z,22.91
2022-09-15T09:55:30.443Z,23.03
2022-09-15T10:02:33.981Z,23.09
2022-09-15T10:09:04.485Z,23.75
2022-09-15T10:21:39.352Z,24.08
2022-09-15T10:24:39.960Z,24.22
2022-09-15T10:31:13.984Z,24.18
2022-09-15T10:33:46.708Z,24.37
2022-09-15T10:37:27.998Z,24.38
2022-09-15T10:40:04.884Z,24.73
2022-09-15T10:46:25.238Z,25.08
2022-09-15T10:49:10.846Z,25.27
2022-09-15T10:52:14.162Z,25.21
2022-09-15T10:55:03.823Z,25.21
2022-09-15T11:01:30.592Z,25.08
2022-09-15T11:12:06.653Z,24.46
2022-09-15T11:15:46.674Z,24.43
2022-09-15T11:18:28.848Z,24.37
2022-09-15T11:21:48.878Z,24.44
2022-09-15T11:24:49.716Z,24.40
2022-09-15T11:28:15.934Z,23.84
2022-09-15T11:31:30.554Z,24.04
2022-09-15T11:38:50.035Z,24.60
2022-09-15T11:44:35.826Z,24.55
2022-09-15T11:47:19.187Z,24.84
2022-09-15T11:49:57.808Z,24.95
2022-09-15T11:53:14.709Z,25.09
2022-09-15T11:56:07.516Z,25.35
2022-09-15T12:12:54.593Z,26.26
2022-09-15T12:16:22.986Z,26.18
2022-09-15T12:29:17.904Z,25.52
2022-09-15T12:32:10.083Z,25.76
2022-09-15T12:38:19.335Z,25.61
2022-09-15T13:08:25.098Z,25.65
2022-09-15T13:11:37.612Z,25.66
2022-09-15T13:14:26.588Z,25.62
2022-09-15T13:18:06.770Z,25.15
2022-09-15T13:20:43.382Z,25.15
2022-09-15T13:23:19.365Z,25.04
2022-09-15T13:28:42.608Z,24.91
2022-09-15T13:32:24.695Z,24.85
2022-09-15T13:35:15.409Z,24.64
2022-09-15T13:41:18.456Z,24.52
2022-09-15T13:44:00.817Z,24.43
2022-09-15T13:46:53.572Z,24.24
2022-09-15T13:50:33.687Z,24.27
2022-09-15T13:53:31.728Z,24.04
2022-09-15T13:56:54.701Z,24.02
2022-09-15T14:02:29.599Z,23.80
2022-09-15T14:05:15.910Z,23.46
2022-09-15T14:07:52.717Z,23.63
2022-09-15T14:10:47.348Z,23.52
2022-09-15T14:13:17.147Z,23.54
2022-09-15T14:19:59.973Z,23.65
2022-09-15T14:22:30.966Z,23.69
2022-09-15T14:25:45.821Z,23.75
2022-09-15T14:28:58.628Z,23.67
2022-09-15T14:31:53.967Z,23.58
2022-09-15T14:34:53.653Z,23.72
2022-09-15T14:38:22.895Z,23.58
2022-09-15T14:41:20.139Z,23.44
2022-09-15T14:43:53.761Z,23.73
2022-09-15T14:46:45.197Z,23.74
2022-09-15T14:49:15.568Z,23.46
2022-09-15T14:51:45.504Z,23.53
2022-09-15T14:58:16.228Z,23.21
2022-09-15T15:07:23.643Z,23.10
2022-09-15T15:09:58.774Z,23.13
2022-09-15T15:12:42.030Z,23.22
2022-09-15T15:18:42.184Z,22.58
2022-09-15T15:21:39.798Z,22.67
2022-09-15T15:24:13.886Z,22.42
2022-09-15T15:31:14.781Z,21.94
2022-09-15T15:37:22.028Z,21.83
2022-09-15T15:40:47.685Z,21.72
2022-09-15T15:43:28.888Z,21.73
2022-09-15T15:46:05.166Z,21.79
2022-09-15T15:48:38.360Z,21.75
2022-09-15T15:51:13.714Z,21.79
2022-09-15T15:53:42.752Z,21.92
2022-09-15T15:56:10.975Z,21.86
2022-09-15T16:02:52.712Z,21.61
2022-09-15T16:10:38.855Z,21.44
2022-09-15T16:13:07.411Z,21.24
2022-09-15T16:15:40.436Z,21.17
2022-09-15T16:18:36.105Z,21.14
2022-09-15T16:21:04.302Z,21.21
2022-09-15T16:23:32.546Z,21.26
2022-09-15T16:26:20.747Z,21.17
2022-09-15T16:32:49.868Z,20.99
2022-09-15T16:36:09.203Z,20.98
2022-09-15T16:38:37.278Z,20.90
2022-09-15T16:53:21.502Z,21.10
2022-09-15T16:59:33.019Z,21.14
2022-09-15T17:01:59.898Z,21.14
2022-09-15T17:04:26.863Z,21.15
2022-09-15T17:08:05.480Z,21.16
2022-09-15T17:10:34.805Z,21.14
2022-09-15T17:13:02.101Z,21.20
2022-09-15T17:15:34.073Z,21.26
2022-09-15T17:18:06.872Z,21.19
2022-09-15T17:24:47.911Z,21.05
2022-09-15T17:27:14.609Z,21.12
2022-09-15T17:30:48.501Z,21.04
2022-09-15T17:33:20.478Z,20.82
2022-09-15T17:39:40.931Z,20.59
2022-09-15T17:42:09.300Z,20.47
2022-09-15T17:51:16.787Z,20.35
2022-09-15T17:53:51.129Z,20.37
2022-09-15T17:56:40.678Z,20.42
2022-09-15T17:59:07.547Z,20.45
2022-09-15T18:05:51.645Z,20.54
2022-09-15T18:09:03.827Z,20.54
2022-09-15T18:11:30.851Z,20.54
2022-09-15T18:13:57.615Z,20.55
2022-09-15T18:16:24.183Z,20.65
2022-09-15T18:19:15.908Z,20.65
2022-09-15T18:21:42.917Z,20.64
2022-09-15T18:25:18.527Z,20.52
2022-09-15T18:28:10.410Z,20.56
2022-09-15T18:30:56.934Z,20.33
2022-09-15T18:37:23.538Z,20.35
2022-09-15T18:40:25.873Z,20.33
2022-09-15T18:42:55.952Z,20.28
2022-09-15T18:45:23.089Z,20.26
2022-09-15T18:47:51.327Z,20.27
2022-09-15T18:50:20.603Z,20.28
2022-09-15T18:52:48.069Z,20.21
2022-09-15T18:55:36.436Z,20.26
2022-09-15T18:58:10.989Z,20.31
2022-09-15T19:00:38.954Z,20.33
2022-09-15T19:03:15.190Z,20.45
2022-09-15T19:09:26.255Z,20.67
2022-09-15T19:11:52.975Z,20.82
2022-09-15T19:15:05.099Z,20.94
2022-09-15T19:18:43.656Z,21.09
2022-09-15T19:21:11.391Z,21.20
2022-09-15T19:23:38.642Z,21.19
2022-09-15T19:30:56.854Z,21.32
2022-09-15T19:37:26.709Z,21.20
2022-09-15T19:40:13.002Z,21.16
2022-09-15T19:42:44.114Z,21.04
2022-09-15T19:45:33.647Z,21.03
2022-09-15T19:48:03.357Z,21.02
2022-09-15T19:50:30.329Z,20.96
2022-09-15T19:52:59.567Z,20.85
2022-09-15T19:55:28.031Z,20.85
2022-09-15T19:58:22.267Z,20.83
2022-09-15T20:00:56.157Z,20.66
2022-09-15T20:03:56.359Z,20.66
2022-09-15T20:06:27.641Z,20.65
2022-09-15T20:08:57.610Z,20.55
2022-09-15T20:16:01.595Z,20.62
2022-09-15T20:18:33.639Z,20.58
2022-09-15T20:21:08.445Z,20.52
2022-09-15T20:23:37.003Z,20.48
2022-09-15T20:26:08.469Z,20.50
2022-09-15T20:28:37.174Z,20.50
2022-09-15T20:31:08.446Z,20.45
2022-09-15T20:33:39.725Z,20.34
2022-09-15T20:39:02.023Z,20.18
2022-09-15T20:44:06.243Z,20.16
2022-09-15T20:46:34.290Z,20.10
2022-09-15T20:49:02.320Z,20.01
2022-09-15T20:51:31.982Z,20.02
2022-09-15T20:54:02.695Z,19.94
2022-09-15T20:56:38.316Z,19.85
2022-09-15T20:59:10.273Z,19.87
2022-09-15T21:01:39.691Z,19.82
2022-09-15T21:04:09.605Z,19.84
2022-09-15T21:06:38.530Z,19.82
2022-09-15T21:11:43.573Z,19.89
2022-09-15T21:14:14.851Z,19.94
2022-09-15T21:16:43.059Z,19.87
2022-09-15T21:22:03.651Z,19.89
2022-09-15T21:24:32.211Z,19.82
2022-09-15T21:32:56.192Z,19.72
2022-09-15T21:35:24.254Z,19.70
2022-09-15T21:37:52.249Z,19.70
2022-09-15T21:40:20.304Z,19.62
2022-09-15T21:42:48.361Z,19.70
2022-09-15T21:45:16.554Z,19.69
2022-09-15T21:58:46.575Z,20.07
2022-09-15T22:01:23.941Z,20.03
2022-09-15T22:03:58.519Z,19.96
2022-09-15T22:06:31.870Z,19.95
2022-09-15T22:09:03.117Z,19.99
2022-09-15T22:12:08.787Z,20.03
2022-09-15T22:14:45.833Z,20.00
2022-09-15T22:17:32.272Z,19.98
2022-09-15T22:20:01.304Z,19.96
2022-09-15T22:22:30.810Z,19.87
2022-09-15T22:24:59.132Z,19.87
2022-09-15T22:27:27.274Z,19.85
2022-09-15T22:29:55.356Z,19.77
2022-09-15T22:32:30.793Z,19.74
2022-09-15T22:34:58.840Z,19.70
2022-09-15T22:37:30.629Z,19.70
2022-09-15T22:39:59.510Z,19.67
2022-09-15T22:42:27.938Z,19.63
2022-09-15T22:45:18.834Z,19.61
2022-09-15T22:48:21.290Z,19.55
2022-09-15T22:54:29.998Z,19.44
2022-09-15T22:56:58.036Z,19.51
2022-09-15T22:59:27.679Z,19.51
2022-09-15T23:01:55.898Z,19.53
2022-09-15T23:04:24.581Z,19.51
2022-09-15T23:07:16.599Z,19.43
2022-09-15T23:09:44.696Z,19.38
2022-09-15T23:12:13.033Z,19.27
2022-09-15T23:14:41.304Z,19.26
2022-09-15T23:17:09.376Z,19.26
2022-09-15T23:19:37.372Z,19.16
2022-09-15T23:22:05.810Z,19.09
2022-09-15T23:24:41.061Z,18.98
2022-09-15T23:27:09.206Z,19.00
2022-09-15T23:30:04.978Z,19.03
2022-09-15T23:32:33.020Z,19.02
2022-09-15T23:35:01.106Z,19.10
2022-09-15T23:37:29.127Z,19.14
2022-09-15T23:39:57.439Z,19.17
2022-09-15T23:42:25.483Z,19.20
2022-09-15T23:44:53.552Z,19.17
2022-09-15T23:47:21.523Z,19.16
2022-09-15T23:49:50.218Z,19.17
2022-09-15T23:52:18.160Z,19.17
2022-09-15T23:54:46.301Z,19.15
2022-09-15T23:57:45.836Z,19.13
